Tiempo atmosférico en la estación meteorológica de Cabo de Gata, Almería (42 m.)



Fecha
DESCASC
Temp. máxima en grados centígrados (hora)
DESCASC
Temp. mínima en grados centígrados (hora)
DESCASC
Temp. media en grados centígrados
DESCASC
Racha de viento máxima en m/sg (hora)
DESCASC
Velocidad máxima media en intervalos de 10 minutos(hora)
DESCASC
Precipitaciones diarias en mm
DESCASC
Precipitaciones de 00:00 a 06:00 en mm
DESCASC
Precipitaciones de 06:00 a 12:00 en mm
DESCASC
Precipitaciones de 12:00 a 18:00 en mm
DESCASC
Precipitaciones de 18:00 a 24:00 en mm
DESCASC
23-06-2019 23.6 (11:00) 20.6 (06:20) 22.1 14.44 (16:40) 11.39 (15:30) 0 0 0 0 0
22-06-2019 24.4 (15:10) 20.6 (00:00) 22.5 24.72 (16:40) 12.5 (17:50) 0 0 0 0 0
21-06-2019 24.3 (15:50) 19.4 (06:30) 21.8 12.22 (00:30) 7.78 (00:40) 0 0 0 0 0
20-06-2019 24.7 (13:50) 19.3 (00:00) 22 10.83 (19:30) 6.67 (05:00) 0 0 0 0 0
19-06-2019 25.2 (14:30) 19.3 (00:00) 22.3 13.33 (06:20) 9.17 (06:20) 0 0 0 0 0
18-06-2019 25.5 (14:10) 17.9 (00:00) 21.7 7.22 (17:40) 4.72 (17:10) 0 0 0 0 0
17-06-2019 24.9 (16:40) 19.3 (00:00) 22.1 8.06 (04:40) 4.72 (05:50) 0 0 0 0 0
16-06-2019 24.9 (14:50) 18.6 (00:00) 21.8 17.5 (17:50) 12.5 (17:50) 0 0 0 0 0
15-06-2019 24.2 (16:40) 18.4 (00:00) 21.3 12.22 (01:30) 9.17 (01:30) 0 0 0 0 0
14-06-2019 22 (13:30) 19.6 (00:00) 20.8 16.39 (13:30) 10.28 (13:20) 0 0 0 0 0
13-06-2019 24.1 (12:00) 19.8 (00:00) 21.9 20.56 (14:00) 13.89 (14:10) 0 0 0 0 0
12-06-2019 21.9 (11:10) 19 (00:00) 20.4 22.78 (00:10) 15 (00:10) 0 0 0 0 0
11-06-2019 23.6 (16:40) 17.1 (00:00) 20.4 23.61 (23:30) 15.28 (23:30) 0 0 0 0 0
10-06-2019 24.7 (13:20) 18.6 (00:00) 21.7 11.67 (23:10) 7.78 (21:30) 0 0 0 0 0
09-06-2019 25.1 (15:10) 18.2 (00:00) 21.7 9.17 (00:20) 4.17 (03:40) 0 0 0 0 0
08-06-2019 24.5 (12:40) 18 (00:00) 21.3 22.22 (13:20) 15 (13:20) 0 0 0 0 0
07-06-2019 24.4 (14:50) 18.4 (00:00) 21.4 9.72 (05:40) 6.39 (06:00) 0 0 0 0 0
06-06-2019 24 (15:30) 17.6 (00:00) 20.8 6.67 (14:20) 4.17 (18:10) 0 0 0 0 0
05-06-2019 22.4 (14:20) 19.9 (00:00) 21.1 17.78 (13:40) 11.67 (03:40) 0 0 0 0 0
04-06-2019 25.3 (13:20) 19.2 (00:00) 22.3 8.89 (23:59) 6.11 (15:20) 0 0 0 0 0
03-06-2019 23.3 (09:50) 17.6 (00:00) 20.4 11.39 (12:40) 8.89 (13:00) 0 0 0 0 0
02-06-2019 25.9 (10:00) 20.3 (00:00) 23.1 17.5 (14:00) 12.22 (14:30) 0 0 0 0 0
01-06-2019 25.3 (11:30) 19.7 (00:00) 22.5 17.5 (17:00) 11.11 (17:00) 0 0 0 0 0
31-05-2019 23 (15:00) 19 (00:00) 21 21.39 (12:40) 13.61 (12:30) 0 0 0 0 0
30-05-2019 22.7 (12:20) 18.5 (00:00) 20.6 16.39 (13:20) 11.11 (01:30) 0 0 0 0 0
29-05-2019 22.5 (11:10) 19.6 (00:00) 21.1 19.17 (01:20) 12.22 (14:50) 0 0 0 0 0
28-05-2019 24.2 (13:00) 19.6 (00:00) 21.9 15 (14:00) 11.11 (14:00) 0 0 0 0 0
27-05-2019 24.9 (15:50) 17.8 (00:00) 21.3 9.44 (22:20) 5.56 (22:20) 0 0 0 0 0
26-05-2019 23.3 (11:50) 17.3 (00:00) 20.3 6.94 (06:10) 5 (06:00) 0 0 0 0 0

Gráficas

Temp. máximas Temp. mínimas Temp. medias Precipitaciones Rachas de viento máximas Velocidades máximas media en intervalos de 10 minutos

Datos horarios

Fecha y hora oficial Temperatura (ºC) Velocidad del viento (km/h) Dirección del viento Racha (km/h) Dirección de racha Precipitación (mm) Presión (hPa) Tendencia (hPa) Humedad (%)
2019-06-24 23:00:00 -- -- -- -- -- -- -- -- --
2019-06-24 22:00:00 -- -- -- -- -- -- -- -- --
2019-06-24 21:00:00 -- -- -- -- -- -- -- -- --
2019-06-24 20:00:00 24.1 10 Oeste 22 Oeste 0 -- -- 73
2019-06-24 19:00:00 24.6 13 Oeste 21 Oeste 0 -- -- 72
2019-06-24 18:00:00 25.3 7 Oeste 20 Sudoeste 0 -- -- 71
2019-06-24 17:00:00 26.3 8 Oeste 20 Oeste 0 -- -- 68
2019-06-24 16:00:00 26.7 4 Oeste 17 Oeste 0 -- -- 67
2019-06-24 15:00:00 26.8 5 Oeste 16 Sur 0 -- -- 66
2019-06-24 14:00:00 26.2 5 Oeste 15 Oeste 0 -- -- 67
2019-06-24 13:00:00 26.3 5 Oeste 11 Oeste 0 -- -- 68
2019-06-24 12:00:00 25.8 7 Oeste 19 Noroeste 0 -- -- 69
2019-06-24 11:00:00 24.7 13 Oeste 22 Noroeste 0 -- -- 75
2019-06-24 10:00:00 23.9 13 Oeste 19 Noroeste 0 -- -- 80
2019-06-24 09:00:00 22.4 11 Noroeste 19 Noroeste 0 -- -- 85
2019-06-24 08:00:00 21.3 15 Noroeste 21 Noroeste 0 -- -- 87
2019-06-24 07:00:00 20.8 10 Noroeste 19 Noroeste 0 -- -- 87
2019-06-24 06:00:00 21 14 Noroeste 22 Noroeste 0 -- -- 87
2019-06-24 05:00:00 21.2 16 Noroeste 26 Noroeste 0 -- -- 87
2019-06-24 04:00:00 21.3 10 Noroeste 22 Noroeste 0 -- -- 86
2019-06-24 03:00:00 21.4 13 Noroeste 21 Noroeste 0 -- -- 85
2019-06-24 02:00:00 21.6 9 Oeste 16 Noroeste 0 -- -- 83
2019-06-24 01:00:00 21.7 4 Nordeste 18 Nordeste 0 -- -- 81
2019-06-24 00:00:00 21.8 3 Noroeste 15 Este 0 -- -- 80
2019-06-23 23:00:00 22.1 8 Este 26 Este 0 -- -- 78
2019-06-23 22:00:00 22.1 12 Nordeste 24 Nordeste 0 -- -- 80
2019-06-23 21:00:00 22.5 16 Este 33 Este 0 -- -- 80
2019-06-23 20:00:00 22.2 27 Este 33 Este 0 -- -- 84
2019-06-23 19:00:00 22.1 26 Este 36 Este 0 -- -- 83
2019-06-23 18:00:00 22.2 31 Este 46 Este 0 -- -- 82
2019-06-23 17:00:00 22.4 38 Este 52 Este 0 -- -- 81
2019-06-23 16:00:00 22.5 40 Este 49 Este 0 -- -- 79
2019-06-23 15:00:00 22.8 37 Este 46 Este 0 -- -- 78
2019-06-23 14:00:00 22.8 37 Este 45 Este 0 -- -- 78
2019-06-23 13:00:00 22.8 36 Este 49 Este 0 -- -- 78
2019-06-23 12:00:00 23 30 Este 39 Este 0 -- -- 78
2019-06-23 11:00:00 23.6 21 Este 28 Este 0 -- -- 79
2019-06-23 10:00:00 22.8 4 Sudeste 13 Noroeste 0 -- -- 82
2019-06-23 09:00:00 21.9 10 Noroeste 16 Oeste 0 -- -- 83
2019-06-23 08:00:00 21.3 11 Noroeste 17 Noroeste 0 -- -- 84
2019-06-23 07:00:00 21 10 Noroeste 19 Noroeste 0 -- -- 84
2019-06-23 06:00:00 20.9 4 Norte 11 Norte 0 -- -- 83
2019-06-23 05:00:00 21.5 9 Este 23 Este 0 -- -- 81
2019-06-23 04:00:00 21.8 13 Nordeste 29 Este 0 -- -- 78
2019-06-23 03:00:00 22.1 10 Este 26 Este 0 -- -- 77
2019-06-23 02:00:00 22.4 4 Este 21 Este 0 -- -- 75
2019-06-23 01:00:00 22.5 10 Nordeste 22 Este 0 -- -- 74
2019-06-23 00:00:00 22.5 3 Este 20 Nordeste 0 -- -- 72
2019-06-22 23:00:00 22.7 5 Nordeste 17 Nordeste 0 -- -- 71
2019-06-22 22:00:00 23 4 Nordeste 36 Este 0 -- -- 70
2019-06-22 21:00:00 23.1 24 Este 41 Nordeste 0 -- -- 71
2019-06-22 20:00:00 23.2 24 Nordeste 53 Este 0 -- -- 73
2019-06-22 19:00:00 23.1 33 Nordeste 56 Nordeste 0 -- -- 76
2019-06-22 18:00:00 23.3 41 Este 61 Este 0 -- -- 74
2019-06-22 17:00:00 23.4 38 Este 89 Este 0 -- -- 71
2019-06-22 16:00:00 24.1 38 Este 61 Este 0 -- -- 67
2019-06-22 15:00:00 24.2 37 Este 69 Nordeste 0 -- -- 66
2019-06-22 14:00:00 24.2 31 Este 64 Este 0 -- -- 67
2019-06-22 13:00:00 23.9 28 Este 60 Este 0 -- -- 69
2019-06-22 12:00:00 23.5 32 Este 51 Este 0 -- -- 73
2019-06-22 11:00:00 23.2 33 Este 48 Este 0 -- -- 76
2019-06-22 10:00:00 23 24 Este 42 Sudeste 0 -- -- 74
2019-06-22 09:00:00 23 19 Este 32 Sudeste 0 -- -- 72
2019-06-22 08:00:00 22.2 12 Nordeste 23 Este 0 -- -- 72
2019-06-22 07:00:00 21.6 8 Norte 15 Norte 0 -- -- 72
2019-06-22 06:00:00 21.7 8 Norte 21 Nordeste 0 -- -- 73
2019-06-22 05:00:00 21.8 11 Nordeste 26 Nordeste 0 -- -- 72
2019-06-22 04:00:00 21.9 10 Nordeste 34 Nordeste 0 -- -- 72
2019-06-22 03:00:00 21.7 21 Nordeste 41 Este 0 -- -- 77
2019-06-22 02:00:00 21 10 Norte 35 Este 0 -- -- 84
2019-06-22 01:00:00 20.8 3 Oeste 8 Sudeste 0 -- -- 86
2019-06-22 00:00:00 20.6 5 Este 17 Este 0 -- -- 86
2019-06-21 23:00:00 20.5 15 Este 27 Este 0 -- -- 85
2019-06-21 22:00:00 20.7 15 Este 24 Este 0 -- -- 83
2019-06-21 21:00:00 21.1 18 Este 24 Este 0 -- -- 81
2019-06-21 20:00:00 21.5 20 Este 28 Este 0 -- -- 79
2019-06-21 19:00:00 22 11 Este 25 Este 0 -- -- 79
2019-06-21 18:00:00 21.4 18 Este 27 Este 0 -- -- 78
2019-06-21 17:00:00 23.1 8 Sudeste 17 Este 0 -- -- 72
2019-06-21 16:00:00 24.2 5 Sudeste 14 Sudeste 0 -- -- 69
2019-06-21 15:00:00 23.7 9 Sudeste 18 Este 0 -- -- 72
2019-06-21 14:00:00 23.5 12 Este 19 Este 0 -- -- 73
2019-06-21 13:00:00 22.7 13 Este 31 Este 0 -- -- 76
2019-06-21 12:00:00 21.9 22 Este 32 Este 0 -- -- 78
2019-06-21 11:00:00 21.4 25 Este 30 Este 0 -- -- 79
2019-06-21 10:00:00 20.9 24 Este 36 Este 0 -- -- 82
2019-06-21 09:00:00 20.5 16 Este 26 Este 0 -- -- 84
2019-06-21 08:00:00 19.6 0 Calma 6 Sur 0 -- -- 85
2019-06-21 07:00:00 19.4 2 Sudeste 8 Oeste 0 -- -- 84
2019-06-21 06:00:00 19.5 2 Sudeste 11 Oeste 0 -- -- 84
2019-06-21 05:00:00 19.6 3 Sudoeste 13 Oeste 0 -- -- 83
2019-06-21 04:00:00 19.8 3 Sur 17 Oeste 0 -- -- 81
2019-06-21 03:00:00 20.1 4 Sur 11 Sudoeste 0 -- -- 80
2019-06-21 02:00:00 20.4 4 Oeste 26 Oeste 0 -- -- 78
2019-06-21 01:00:00 20.7 21 Noroeste 44 Noroeste 0 -- -- 77
2019-06-21 00:00:00 21 19 Oeste 31 Oeste 0 -- -- 75
2019-06-20 23:00:00 21.3 17 Noroeste 35 Noroeste 0 -- -- 73
2019-06-20 22:00:00 21.9 15 Oeste 30 Oeste 0 -- -- 70
2019-06-20 21:00:00 22.7 17 Noroeste 31 Noroeste 0 -- -- 68
2019-06-20 20:00:00 23 20 Oeste 39 Noroeste 0 -- -- 67
2019-06-20 19:00:00 23.4 8 Oeste 24 Sudoeste 0 -- -- 69
2019-06-20 18:00:00 23.7 15 Oeste 23 Oeste 0 -- -- 68
2019-06-20 17:00:00 24.6 11 Oeste 22 Sudoeste 0 -- -- 66
2019-06-20 16:00:00 24.2 17 Oeste 33 Oeste 0 -- -- 68
2019-06-20 15:00:00 24.3 21 Oeste 31 Oeste 0 -- -- 68
2019-06-20 14:00:00 24.6 18 Oeste 28 Oeste 0 -- -- 68
2019-06-20 13:00:00 23.8 14 Oeste 27 Sudoeste 0 -- -- 73
2019-06-20 12:00:00 24 11 Oeste 23 Oeste 0 -- -- 75
2019-06-20 11:00:00 22.9 12 Oeste 22 Noroeste 0 -- -- 81
2019-06-20 10:00:00 22.4 12 Oeste 21 Oeste 0 -- -- 84
2019-06-20 09:00:00 21.5 10 Oeste 18 Noroeste 0 -- -- 86
2019-06-20 08:00:00 20.1 3 Oeste 10 Oeste 0 -- -- 87
2019-06-20 07:00:00 19.3 5 Noroeste 10 Noroeste 0 -- -- 86
2019-06-20 06:00:00 20 8 Noroeste 33 Noroeste 0 -- -- 87
2019-06-20 05:00:00 20.1 24 Noroeste 32 Noroeste 0 -- -- 86
2019-06-20 04:00:00 20.3 12 Oeste 22 Oeste 0 -- -- 85
2019-06-20 03:00:00 20.5 18 Oeste 24 Oeste 0 -- -- 84
2019-06-20 02:00:00 20.7 11 Oeste 18 Oeste 0 -- -- 83
2019-06-20 01:00:00 20.9 13 Oeste 20 Oeste 0 -- -- 81
2019-06-20 00:00:00 21 6 Oeste 16 Noroeste 0 -- -- 80
2019-06-19 23:00:00 21.2 6 Oeste 18 Oeste 0 -- -- 78
2019-06-19 22:00:00 21.7 13 Oeste 24 Oeste 0 -- -- 75
2019-06-19 21:00:00 22.2 8 Oeste 15 Oeste 0 -- -- 74
2019-06-19 20:00:00 22.9 4 Oeste 19 Oeste 0 -- -- 71
2019-06-19 19:00:00 23.2 12 Oeste 32 Noroeste 0 -- -- 68
2019-06-19 18:00:00 23.7 19 Oeste 30 Noroeste 0 -- -- 65
2019-06-19 17:00:00 24 18 Oeste 33 Noroeste 0 -- -- 67
2019-06-19 16:00:00 24.9 14 Oeste 23 Noroeste 0 -- -- 67
2019-06-19 15:00:00 25.2 14 Oeste 23 Oeste 0 -- -- 67
2019-06-19 14:00:00 24.9 13 Oeste 20 Noroeste 0 -- -- 67
2019-06-19 13:00:00 24.6 10 Oeste 20 Oeste 0 -- -- 70
2019-06-19 12:00:00 24 11 Oeste 19 Oeste 0 -- -- 75
2019-06-19 11:00:00 22.6 9 Oeste 19 Oeste 0 -- -- 80
2019-06-19 10:00:00 21.3 11 Oeste 20 Oeste 0 -- -- 80
2019-06-19 09:00:00 21.7 10 Oeste 24 Noroeste 0 -- -- 80
2019-06-19 08:00:00 20.2 13 Oeste 30 Noroeste 0 -- -- 80
2019-06-19 07:00:00 20 18 Oeste 48 Noroeste 0 -- -- 75
2019-06-19 06:00:00 19.6 26 Noroeste 43 Noroeste 0 -- -- 83
2019-06-19 05:00:00 19.7 18 Oeste 35 Noroeste 0 -- -- 83
2019-06-19 04:00:00 20.1 21 Oeste 33 Noroeste 0 -- -- 82
2019-06-19 03:00:00 20.2 23 Noroeste 31 Noroeste 0 -- -- 81
2019-06-19 02:00:00 20.3 8 Oeste 13 Oeste 0 -- -- 81
2019-06-19 01:00:00 20.3 5 Oeste 15 Sudoeste 0 -- -- 80
2019-06-19 00:00:00 20.5 5 Oeste 12 Oeste 0 -- -- 79
2019-06-18 23:00:00 20.6 4 Sudoeste 16 Oeste 0 -- -- 77
2019-06-18 22:00:00 21.1 10 Oeste 17 Oeste 0 -- -- 76
2019-06-18 21:00:00 21.9 5 Oeste 14 Sudoeste 0 -- -- 74
2019-06-18 20:00:00 22.6 5 Oeste 17 Oeste 0 -- -- 72
2019-06-18 19:00:00 22.9 11 Oeste 23 Oeste 0 -- -- 69
2019-06-18 18:00:00 23.1 10 Oeste 26 Noroeste 0 -- -- 70
2019-06-18 17:00:00 24.2 15 Oeste 23 Noroeste 0 -- -- 68
2019-06-18 16:00:00 24.8 10 Oeste 20 Oeste 0 -- -- 67
2019-06-18 15:00:00 25 10 Oeste 19 Oeste 0 -- -- 67
2019-06-18 14:00:00 25.4 7 Oeste 15 Oeste 0 -- -- 66
2019-06-18 13:00:00 24.9 8 Oeste 14 Oeste 0 -- -- 66
2019-06-18 12:00:00 24.9 8 Oeste 14 Oeste 0 -- -- 68
2019-06-18 11:00:00 24 4 Oeste 10 Noroeste 0 -- -- 69
2019-06-18 10:00:00 23.4 7 Oeste 12 Noroeste 0 -- -- 68
2019-06-18 09:00:00 22.1 2 Oeste 4 Oeste 0 -- -- 71
2019-06-18 08:00:00 20.1 0 Calma 3 Sudeste 0 -- -- 73
2019-06-18 07:00:00 18.5 0 Calma 5 Oeste 0 -- -- 72
2019-06-18 06:00:00 17.9 5 Noroeste 16 Este 0 -- -- 77
2019-06-18 05:00:00 19.7 15 Este 21 Este 0 -- -- 81
2019-06-18 04:00:00 20.6 8 Este 14 Este 0 -- -- 73
2019-06-18 03:00:00 20.4 3 Sudeste 11 Este 0 -- -- 67
2019-06-18 02:00:00 20.7 7 Este 10 Este 0 -- -- 60
2019-06-18 01:00:00 20.2 4 Noroeste 8 Noroeste 0 -- -- 55
2019-06-18 00:00:00 21 0 Calma 4 Este 0 -- -- 58
2019-06-17 23:00:00 21 0 Calma 14 Oeste 0 -- -- 73
2019-06-17 22:00:00 21.3 12 Oeste 19 Noroeste 0 -- -- 76
2019-06-17 21:00:00 22.6 13 Noroeste 17 Noroeste 0 -- -- 74
2019-06-17 20:00:00 23.3 9 Oeste 12 Noroeste 0 -- -- 73
2019-06-17 19:00:00 23.5 7 Oeste 14 Oeste 0 -- -- 71
2019-06-17 18:00:00 23.9 9 Oeste 14 Oeste 0 -- -- 69
2019-06-17 17:00:00 24.8 6 Oeste 15 Oeste 0 -- -- 66
2019-06-17 16:00:00 24.6 6 Oeste 12 Sudoeste 0 -- -- 66
2019-06-17 15:00:00 24.7 5 Oeste 14 Sudoeste 0 -- -- 65
2019-06-17 14:00:00 24.5 4 Oeste 13 Oeste 0 -- -- 65
2019-06-17 13:00:00 24.7 6 Oeste 15 Sudoeste 0 -- -- 66
2019-06-17 12:00:00 24.2 8 Oeste 16 Oeste 0 -- -- 68
2019-06-17 11:00:00 23.4 7 Oeste 15 Oeste 0 -- -- 72
2019-06-17 10:00:00 22.1 5 Oeste 17 Noroeste 0 -- -- 80
2019-06-17 09:00:00 20.2 7 Oeste 17 Noroeste 0 -- -- 84
2019-06-17 08:00:00 19.5 12 Oeste 20 Noroeste 0 -- -- 85
2019-06-17 07:00:00 19.3 14 Noroeste 24 Noroeste 0 -- -- 86
2019-06-17 06:00:00 19.4 16 Noroeste 24 Noroeste 0 -- -- 85
2019-06-17 05:00:00 19.5 11 Noroeste 29 Noroeste 0 -- -- 85
2019-06-17 04:00:00 19.7 14 Noroeste 19 Noroeste 0 -- -- 84
2019-06-17 03:00:00 19.9 14 Noroeste 21 Noroeste 0 -- -- 82
2019-06-17 02:00:00 20 8 Oeste 21 Noroeste 0 -- -- 81
2019-06-17 01:00:00 20.2 10 Oeste 19 Noroeste 0 -- -- 80
2019-06-17 00:00:00 20.4 12 Oeste 23 Oeste 0 -- -- 77
2019-06-16 23:00:00 20.9 13 Noroeste 26 Noroeste 0 -- -- 74
2019-06-16 22:00:00 22.3 18 Noroeste 25 Noroeste 0 -- -- 67
2019-06-16 21:00:00 23.3 19 Nordeste 46 Nordeste 0 -- -- 55
2019-06-16 20:00:00 23.4 28 Nordeste 50 Nordeste 0 -- -- 60
2019-06-16 19:00:00 22.9 37 Este 60 Nordeste 0 -- -- 67
2019-06-16 18:00:00 22.3 42 Este 63 Este 0 -- -- 69
2019-06-16 17:00:00 22.9 33 Este 61 Nordeste 0 -- -- 67
2019-06-16 16:00:00 23.7 36 Este 55 Este 0 -- -- 65
2019-06-16 15:00:00 24.7 23 Nordeste 42 Este 0 -- -- 51
2019-06-16 14:00:00 24.4 26 Este 53 Este 0 -- -- 40
2019-06-16 13:00:00 24.4 21 Nordeste 41 Nordeste 0 -- -- 40
2019-06-16 12:00:00 24.2 26 Nordeste 51 Nordeste 0 -- -- 41
2019-06-16 11:00:00 23.4 24 Nordeste 53 Nordeste 0 -- -- 48
2019-06-16 10:00:00 23.3 18 Nordeste 36 Este 0 -- -- 52
2019-06-16 09:00:00 21.1 13 Nordeste 29 Este 0 -- -- 66
2019-06-16 08:00:00 19.9 12 Este 22 Este 0 -- -- 75
2019-06-16 07:00:00 18.9 12 Este 21 Este 0 -- -- 76
2019-06-16 06:00:00 19.2 8 Noroeste 16 Noroeste 0 -- -- 74
2019-06-16 05:00:00 18.9 2 Noroeste 10 Noroeste 0 -- -- 74
2019-06-16 04:00:00 19.1 6 Este 9 Este 0 -- -- 74
2019-06-16 03:00:00 18.9 2 Noroeste 7 Noroeste 0 -- -- 73
2019-06-16 02:00:00 18.8 4 Noroeste 8 Noroeste 0 -- -- 72
2019-06-16 01:00:00 18.9 3 Oeste 8 Oeste 0 -- -- 71
2019-06-16 00:00:00 19.7 6 Oeste 17 Noroeste 0 -- -- 72
2019-06-15 23:00:00 19.7 11 Oeste 21 Noroeste 0 -- -- 72
2019-06-15 22:00:00 19.8 13 Oeste 23 Oeste 0 -- -- 72
2019-06-15 21:00:00 20.8 15 Oeste 22 Oeste 0 -- -- 70
2019-06-15 20:00:00 21.2 13 Oeste 21 Noroeste 0 -- -- 68
2019-06-15 19:00:00 21.8 15 Oeste 22 Noroeste 0 -- -- 66
2019-06-15 18:00:00 22.5 11 Oeste 22 Oeste 0 -- -- 65
2019-06-15 17:00:00 23.6 14 Oeste 22 Oeste 0 -- -- 62
2019-06-15 16:00:00 24.1 8 Oeste 18 Sudoeste 0 -- -- 62
2019-06-15 15:00:00 22.9 5 Oeste 14 Sudoeste 0 -- -- 65
2019-06-15 14:00:00 21.7 5 Sur 14 Sur 0 -- -- 68
2019-06-15 13:00:00 21.9 5 Sur 12 Sur 0 -- -- 68
2019-06-15 12:00:00 21.9 6 Sur 13 Sudoeste 0 -- -- 69
2019-06-15 11:00:00 22.7 7 Oeste 17 Oeste 0 -- -- 70
2019-06-15 10:00:00 21.5 10 Oeste 27 Oeste 0 -- -- 74
2019-06-15 09:00:00 20.4 18 Oeste 28 Oeste 0 -- -- 78
2019-06-15 08:00:00 19.1 20 Oeste 32 Noroeste 0 -- -- 80
2019-06-15 07:00:00 18.4 24 Oeste 31 Oeste 0 -- -- 80
2019-06-15 06:00:00 18.4 20 Oeste 33 Oeste 0 -- -- 80
2019-06-15 05:00:00 18.5 13 Oeste 30 Oeste 0 -- -- 81
2019-06-15 04:00:00 18.6 17 Oeste 37 Oeste 0 -- -- 80
2019-06-15 03:00:00 18.8 31 Oeste 39 Oeste 0 -- -- 79
2019-06-15 02:00:00 19 32 Oeste 44 Oeste 0 -- -- 77
2019-06-15 01:00:00 19.3 30 Oeste 42 Oeste 0 -- -- 75
2019-06-15 00:00:00 19.7 21 Oeste 33 Noroeste 0 -- -- 73
2019-06-14 23:00:00 19.9 16 Oeste 30 Oeste 0 -- -- 71
2019-06-14 22:00:00 20.1 16 Oeste 33 Oeste 0 -- -- 68
2019-06-14 21:00:00 20.4 18 Oeste 34 Sudoeste 0 -- -- 68
2019-06-14 20:00:00 20.5 22 Oeste 37 Noroeste 0 -- -- 68
2019-06-14 19:00:00 20.6 19 Oeste 38 Oeste 0 -- -- 70
2019-06-14 18:00:00 20.7 23 Oeste 46 Oeste 0 -- -- 70
2019-06-14 17:00:00 20.8 23 Oeste 53 Oeste 0 -- -- 69
2019-06-14 16:00:00 21.2 27 Oeste 53 Oeste 0 -- -- 67
2019-06-14 15:00:00 21.2 30 Oeste 52 Oeste 0 -- -- 67
2019-06-14 14:00:00 21.6 27 Oeste 59 Oeste 0 -- -- 64
2019-06-14 13:00:00 21.3 33 Oeste 56 Noroeste 0 -- -- 67
2019-06-14 12:00:00 20.6 22 Oeste 55 Oeste 0 -- -- 71
2019-06-14 11:00:00 20.6 30 Oeste 53 Oeste 0 -- -- 75
2019-06-14 10:00:00 20.6 26 Oeste 47 Oeste 0 -- -- 81
2019-06-14 09:00:00 19.6 21 Oeste 40 Sudoeste 0 -- -- 86
2019-06-14 08:00:00 19.7 25 Oeste 43 Sudoeste 0 -- -- 87
2019-06-14 07:00:00 19.8 22 Oeste 40 Oeste 0 -- -- 86
2019-06-14 06:00:00 20 13 Oeste 28 Oeste 0 -- -- 85
2019-06-14 05:00:00 19.9 10 Sudeste 27 Oeste 0 -- -- 84
2019-06-14 04:00:00 20 10 Oeste 26 Sudoeste 0 -- -- 83
2019-06-14 03:00:00 20.3 20 Oeste 38 Noroeste 0 -- -- 83
2019-06-14 02:00:00 20.7 24 Oeste 33 Oeste 0 -- -- 80
2019-06-14 01:00:00 20.7 2 Sudoeste 30 Noroeste 0 -- -- 80
2019-06-14 00:00:00 21.2 5 Oeste 17 Noroeste 0 -- -- 76
2019-06-13 23:00:00 21.2 6 Oeste 32 Este 0 -- -- 76
2019-06-13 22:00:00 20.6 24 Nordeste 41 Nordeste 0 -- -- 78
2019-06-13 21:00:00 20.9 29 Este 58 Este 0 -- -- 76
2019-06-13 20:00:00 21.3 34 Este 55 Este 0 -- -- 73
2019-06-13 19:00:00 21.9 28 Este 62 Este 0 -- -- 70
2019-06-13 18:00:00 21.7 46 Este 66 Este 0 -- -- 70
2019-06-13 17:00:00 22 44 Este 72 Este 0 -- -- 69
2019-06-13 16:00:00 22.8 42 Este 71 Este 0 -- -- 66
2019-06-13 15:00:00 22.9 46 Este 74 Este 0 -- -- 65
2019-06-13 14:00:00 22.8 47 Este 74 Nordeste 0 -- -- 66
2019-06-13 13:00:00 23.6 39 Este 61 Este 0 -- -- 62
2019-06-13 12:00:00 24.1 32 Nordeste 59 Nordeste 0 -- -- 58
2019-06-13 11:00:00 23.3 38 Este 62 Nordeste 0 -- -- 60
2019-06-13 10:00:00 23.2 22 Nordeste 53 Este 0 -- -- 62
2019-06-13 09:00:00 22 18 Nordeste 36 Este 0 -- -- 67
2019-06-13 08:00:00 20.8 12 Nordeste 20 Nordeste 0 -- -- 69
2019-06-13 07:00:00 20.5 6 Noroeste 26 Este 0 -- -- 69
2019-06-13 06:00:00 20.3 7 Norte 20 Noroeste 0 -- -- 70
2019-06-13 05:00:00 20.3 8 Norte 30 Este 0 -- -- 70
2019-06-13 04:00:00 20.2 8 Nordeste 25 Este 0 -- -- 72
2019-06-13 03:00:00 20.2 17 Nordeste 33 Nordeste 0 -- -- 75
2019-06-13 02:00:00 20.2 8 Nordeste 49 Este 0 -- -- 77
2019-06-13 01:00:00 20.1 11 Norte 35 Este 0 -- -- 78
2019-06-13 00:00:00 19.8 13 Nordeste 43 Nordeste 0 -- -- 79
2019-06-12 23:00:00 19.8 18 Nordeste 41 Este 0 -- -- 80
2019-06-12 22:00:00 19.8 35 Nordeste 62 Este 0 -- -- 79
2019-06-12 21:00:00 19.8 46 Nordeste 69 Este 0 -- -- 76
2019-06-12 20:00:00 20.1 46 Este 67 Nordeste 0 -- -- 73
2019-06-12 19:00:00 20.8 40 Este 58 Este 0 -- -- 71
2019-06-12 18:00:00 20.8 42 Este 66 Este 0 -- -- 70
2019-06-12 17:00:00 20.6 41 Este 69 Este 0 -- -- 70
2019-06-12 16:00:00 20.8 42 Este 68 Este 0 -- -- 68
2019-06-12 15:00:00 21 42 Nordeste 65 Este 0 -- -- 66
2019-06-12 14:00:00 21.1 39 Este 67 Este 0 -- -- 64
2019-06-12 13:00:00 21.1 42 Nordeste 61 Este 0 -- -- 64
2019-06-12 12:00:00 21.2 46 Este 63 Nordeste 0 -- -- 59
2019-06-12 11:00:00 21.5 27 Nordeste 54 Este 0 -- -- 59
2019-06-12 10:00:00 20.8 39 Este 60 Este 0 -- -- 59
2019-06-12 09:00:00 20.5 32 Nordeste 51 Este 0 -- -- 61
2019-06-12 08:00:00 19.7 31 Nordeste 48 Nordeste 0 -- -- 67
2019-06-12 07:00:00 19 26 Nordeste 58 Nordeste 0 -- -- 69
2019-06-12 06:00:00 19 25 Nordeste 54 Nordeste 0 -- -- 70
2019-06-12 05:00:00 19.1 27 Nordeste 67 Nordeste 0 -- -- 73
2019-06-12 04:00:00 19.2 38 Este 69 Este 0 -- -- 74
2019-06-12 03:00:00 19.1 46 Este 73 Este 0 -- -- 75
2019-06-12 02:00:00 19.3 33 Nordeste 71 Este 0 -- -- 77
2019-06-12 01:00:00 19.8 48 Este 82 Este 0 -- -- 77
2019-06-12 00:00:00 20.3 54 Este 85 Nordeste 0 -- -- 77
2019-06-11 23:00:00 20.8 38 Nordeste 70 Nordeste 0 -- -- 73
2019-06-11 22:00:00 19.9 4 Norte 29 Noroeste 0 -- -- 73
2019-06-11 21:00:00 20.8 20 Oeste 46 Noroeste 0 -- -- 70
2019-06-11 20:00:00 21.7 15 Oeste 28 Noroeste 0 -- -- 69
2019-06-11 19:00:00 21.9 7 Oeste 19 Oeste 0 -- -- 69
2019-06-11 18:00:00 22.5 11 Oeste 21 Noroeste 0 -- -- 67
2019-06-11 17:00:00 23.4 10 Oeste 24 Oeste 0 -- -- 65
2019-06-11 16:00:00 23.3 15 Oeste 35 Oeste 0 -- -- 66
2019-06-11 15:00:00 22.5 18 Oeste 35 Oeste 0 -- -- 66
2019-06-11 14:00:00 23 8 Oeste 24 Sudoeste 0 -- -- 67
2019-06-11 13:00:00 22 6 Sudoeste 19 Sur 0 -- -- 71
2019-06-11 12:00:00 22.8 5 Sur 14 Oeste 0 -- -- 69
2019-06-11 11:00:00 23 8 Oeste 16 Oeste 0 -- -- 72
2019-06-11 10:00:00 21.6 7 Oeste 22 Noroeste 0 -- -- 76
2019-06-11 09:00:00 20.1 14 Noroeste 24 Noroeste 0 -- -- 81
2019-06-11 08:00:00 18.4 13 Oeste 21 Noroeste 0 -- -- 84
2019-06-11 07:00:00 17.2 6 Oeste 11 Noroeste 0 -- -- 83
2019-06-11 06:00:00 17.7 2 Este 11 Este 0 -- -- 83
2019-06-11 05:00:00 17.6 5 Noroeste 17 Noroeste 0 -- -- 82
2019-06-11 04:00:00 18.2 13 Oeste 19 Noroeste 0 -- -- 82
2019-06-11 03:00:00 18.6 9 Oeste 17 Oeste 0 -- -- 81
2019-06-11 02:00:00 19.1 4 Oeste 13 Noroeste 0 -- -- 80
2019-06-11 01:00:00 19.3 2 Noroeste 18 Noroeste 0 -- -- 78
2019-06-11 00:00:00 19.4 11 Noroeste 42 Noroeste 0 -- -- 77
2019-06-10 23:00:00 19.4 26 Oeste 40 Noroeste 0 -- -- 77
2019-06-10 22:00:00 19.6 22 Oeste 41 Noroeste 0 -- -- 76
2019-06-10 21:00:00 20 26 Noroeste 38 Noroeste 0 -- -- 75
2019-06-10 20:00:00 20.7 23 Oeste 34 Oeste 0 -- -- 74
2019-06-10 19:00:00 20.9 18 Oeste 35 Oeste 0 -- -- 74
2019-06-10 18:00:00 20.7 21 Oeste 37 Oeste 0 -- -- 74
2019-06-10 17:00:00 20.9 21 Oeste 39 Oeste 0 -- -- 72
2019-06-10 16:00:00 21.5 20 Oeste 36 Sudoeste 0 -- -- 70
2019-06-10 15:00:00 22.7 16 Oeste 30 Oeste 0 -- -- 67
2019-06-10 14:00:00 24 13 Oeste 26 Oeste 0 -- -- 66
2019-06-10 13:00:00 24.5 5 Oeste 12 Oeste 0 -- -- 66
2019-06-10 12:00:00 24 3 Sudoeste 9 Oeste 0 -- -- 67
2019-06-10 11:00:00 23.4 5 Oeste 14 Oeste 0 -- -- 71
2019-06-10 10:00:00 21.9 8 Oeste 13 Oeste 0 -- -- 79
2019-06-10 09:00:00 20.3 4 Noroeste 17 Norte 0 -- -- 81
2019-06-10 08:00:00 19.6 5 Noroeste 17 Noroeste 0 -- -- 82
2019-06-10 07:00:00 19 8 Noroeste 19 Oeste 0 -- -- 80
2019-06-10 06:00:00 18.9 10 Oeste 30 Noroeste 0 -- -- 81
2019-06-10 05:00:00 18.9 10 Oeste 20 Oeste 0 -- -- 82
2019-06-10 04:00:00 19.1 12 Oeste 24 Noroeste 0 -- -- 81
2019-06-10 03:00:00 19.3 16 Noroeste 26 Noroeste 0 -- -- 79
2019-06-10 02:00:00 19.7 10 Oeste 26 Oeste 0 -- -- 77
2019-06-10 01:00:00 20 13 Oeste 20 Oeste 0 -- -- 76
2019-06-10 00:00:00 20.3 12 Oeste 19 Oeste 0 -- -- 77
2019-06-09 23:00:00 20.4 9 Oeste 16 Oeste 0 -- -- 77
2019-06-09 22:00:00 20.5 9 Oeste 22 Sudoeste 0 -- -- 75
2019-06-09 21:00:00 21.2 14 Oeste 21 Oeste 0 -- -- 75
2019-06-09 20:00:00 21.7 15 Oeste 21 Oeste 0 -- -- 76
2019-06-09 19:00:00 22.3 13 Oeste 27 Oeste 0 -- -- 76
2019-06-09 18:00:00 22.6 9 Oeste 25 Noroeste 0 -- -- 74
2019-06-09 17:00:00 24.2 13 Oeste 22 Oeste 0 -- -- 70
2019-06-09 16:00:00 24.8 10 Oeste 20 Oeste 0 -- -- 69
2019-06-09 15:00:00 25 9 Oeste 17 Sudoeste 0 -- -- 69
2019-06-09 14:00:00 24.5 8 Oeste 18 Oeste 0 -- -- 69
2019-06-09 13:00:00 24.7 10 Oeste 17 Oeste 0 -- -- 68
2019-06-09 12:00:00 24.3 9 Sudoeste 15 Sudoeste 0 -- -- 69
2019-06-09 11:00:00 23.2 10 Oeste 24 Noroeste 0 -- -- 74
2019-06-09 10:00:00 22.3 9 Oeste 19 Noroeste 0 -- -- 74
2019-06-09 09:00:00 20.3 14 Noroeste 22 Oeste 0 -- -- 77
2019-06-09 08:00:00 19 9 Oeste 14 Oeste 0 -- -- 75
2019-06-09 07:00:00 18.9 6 Noroeste 14 Noroeste 0 -- -- 73
2019-06-09 06:00:00 18.8 5 Noroeste 10 Noroeste 0 -- -- 71
2019-06-09 05:00:00 19.9 2 Oeste 21 Nordeste 0 -- -- 69
2019-06-09 04:00:00 20.2 12 Nordeste 24 Este 0 -- -- 69
2019-06-09 03:00:00 20.1 8 Nordeste 14 Este 0 -- -- 71
2019-06-09 02:00:00 20.3 4 Nordeste 11 Este 0 -- -- 72
2019-06-09 01:00:00 20.4 3 Norte 33 Este 0 -- -- 73
2019-06-09 00:00:00 20.5 14 Nordeste 31 Este 0 -- -- 76
2019-06-08 23:00:00 20.9 21 Nordeste 56 Este 0 -- -- 75
2019-06-08 22:00:00 21 30 Nordeste 60 Este 0 -- -- 75
2019-06-08 21:00:00 21.5 27 Nordeste 60 Nordeste 0 -- -- 74
2019-06-08 20:00:00 21.7 44 Este 76 Este 0 -- -- 73
2019-06-08 19:00:00 22.1 39 Este 72 Nordeste 0 -- -- 71
2019-06-08 18:00:00 22.2 40 Este 73 Este 0 -- -- 72
2019-06-08 17:00:00 22 44 Este 75 Este 0 -- -- 73
2019-06-08 16:00:00 22.6 45 Este 75 Este 0 -- -- 71
2019-06-08 15:00:00 23.6 40 Este 68 Nordeste 0 -- -- 67
2019-06-08 14:00:00 24.2 44 Este 80 Nordeste 0 -- -- 59
2019-06-08 13:00:00 24.2 47 Este 73 Este 0 -- -- 52
2019-06-08 12:00:00 23.8 48 Este 74 Este 0 -- -- 55
2019-06-08 11:00:00 24.2 33 Nordeste 66 Nordeste 0 -- -- 53
2019-06-08 10:00:00 22.9 33 Este 56 Este 0 -- -- 59
2019-06-08 09:00:00 21.9 43 Nordeste 58 Nordeste 0 -- -- 64
2019-06-08 08:00:00 20.3 18 Este 28 Este 0 -- -- 74
2019-06-08 07:00:00 18.7 14 Este 22 Este 0 -- -- 82
2019-06-08 06:00:00 18.3 2 Noroeste 10 Noroeste 0 -- -- 82
2019-06-08 05:00:00 18.4 4 Norte 9 Norte 0 -- -- 82
2019-06-08 04:00:00 18.5 6 Norte 12 Noroeste 0 -- -- 83
2019-06-08 03:00:00 18.9 4 Norte 6 Norte 0 -- -- 82
2019-06-08 02:00:00 19.4 3 Este 8 Este 0 -- -- 81
2019-06-08 01:00:00 19.6 5 Este 11 Este 0 -- -- 79
2019-06-08 00:00:00 20.1 3 Norte 13 Noroeste 0 -- -- 74
2019-06-07 23:00:00 20.2 10 Oeste 31 Noroeste 0 -- -- 72
2019-06-07 22:00:00 20.4 18 Noroeste 31 Noroeste 0 -- -- 72
2019-06-07 21:00:00 20.9 14 Oeste 27 Noroeste 0 -- -- 73
2019-06-07 20:00:00 21.6 16 Oeste 30 Noroeste 0 -- -- 73
2019-06-07 19:00:00 22.1 13 Oeste 22 Noroeste 0 -- -- 73
2019-06-07 18:00:00 22.7 11 Oeste 20 Noroeste 0 -- -- 71
2019-06-07 17:00:00 23.5 13 Oeste 29 Oeste 0 -- -- 68
2019-06-07 16:00:00 24.1 14 Oeste 26 Oeste 0 -- -- 66
2019-06-07 15:00:00 24.2 10 Oeste 21 Oeste 0 -- -- 65
2019-06-07 14:00:00 24.3 17 Oeste 23 Oeste 0 -- -- 65
2019-06-07 13:00:00 23.5 9 Oeste 15 Oeste 0 -- -- 67
2019-06-07 12:00:00 23.3 8 Oeste 18 Oeste 0 -- -- 68
2019-06-07 11:00:00 22.4 6 Oeste 18 Noroeste 0 -- -- 72
2019-06-07 10:00:00 21.5 11 Oeste 26 Oeste 0 -- -- 76
2019-06-07 09:00:00 20.1 12 Oeste 23 Oeste 0 -- -- 81
2019-06-07 08:00:00 18.9 7 Oeste 21 Sudoeste 0 -- -- 82
2019-06-07 07:00:00 18.5 8 Oeste 31 Oeste 0 -- -- 81
2019-06-07 06:00:00 18.4 23 Noroeste 35 Noroeste 0 -- -- 79
2019-06-07 05:00:00 18.4 22 Oeste 30 Oeste 0 -- -- 78
2019-06-07 04:00:00 18.7 19 Oeste 31 Oeste 0 -- -- 77
2019-06-07 03:00:00 19 12 Oeste 26 Oeste 0 -- -- 75
2019-06-07 02:00:00 19.4 15 Oeste 25 Oeste 0 -- -- 74
2019-06-07 01:00:00 19.4 7 Oeste 15 Oeste 0 -- -- 73
2019-06-07 00:00:00 19.6 4 Oeste 16 Sudoeste 0 -- -- 74
2019-06-06 23:00:00 19.7 6 Oeste 16 Sur 0 -- -- 73
2019-06-06 22:00:00 20.2 6 Oeste 18 Oeste 0 -- -- 71
2019-06-06 21:00:00 21.2 7 Oeste 16 Oeste 0 -- -- 69
2019-06-06 20:00:00 21.8 10 Oeste 21 Oeste 0 -- -- 67
2019-06-06 19:00:00 21.8 13 Oeste 22 Oeste 0 -- -- 67
2019-06-06 18:00:00 22.8 11 Oeste 19 Oeste 0 -- -- 66
2019-06-06 17:00:00 23.8 9 Oeste 19 Oeste 0 -- -- 65
2019-06-06 16:00:00 24 13 Oeste 21 Oeste 0 -- -- 67
2019-06-06 15:00:00 23.5 11 Oeste 24 Sudoeste 0 -- -- 69
2019-06-06 14:00:00 23.5 12 Oeste 22 Oeste 0 -- -- 69
2019-06-06 13:00:00 23.5 11 Oeste 20 Oeste 0 -- -- 69
2019-06-06 12:00:00 23.5 7 Oeste 15 Oeste 0 -- -- 69
2019-06-06 11:00:00 22.5 4 Sur 9 Este 0 -- -- 74
2019-06-06 10:00:00 21.5 7 Sudeste 15 Este 0 -- -- 79
2019-06-06 09:00:00 20.2 4 Este 18 Este 0 -- -- 83
2019-06-06 08:00:00 19.1 7 Sudeste 17 Este 0 -- -- 84
2019-06-06 07:00:00 18.4 8 Este 15 Este 0 -- -- 83
2019-06-06 06:00:00 18.1 0 Calma 10 Norte 0 -- -- 83
2019-06-06 05:00:00 18.1 7 Noroeste 14 Oeste 0 -- -- 82
2019-06-06 04:00:00 18.6 8 Noroeste 16 Noroeste 0 -- -- 81
2019-06-06 03:00:00 19.2 8 Oeste 15 Oeste 0 -- -- 79
2019-06-06 02:00:00 19.5 10 Oeste 21 Oeste 0 -- -- 78
2019-06-06 01:00:00 19.7 8 Oeste 15 Oeste 0 -- -- 76
2019-06-06 00:00:00 19.9 6 Oeste 22 Oeste 0 -- -- 74
2019-06-05 23:00:00 20.2 14 Oeste 24 Oeste 0 -- -- 73
2019-06-05 22:00:00 20.4 19 Oeste 30 Oeste 0 -- -- 71
2019-06-05 21:00:00 20.7 23 Oeste 38 Oeste 0 -- -- 68
2019-06-05 20:00:00 21.1 28 Oeste 46 Oeste 0 -- -- 65
2019-06-05 19:00:00 21.4 30 Oeste 48 Sudoeste 0 -- -- 63
2019-06-05 18:00:00 21.4 27 Oeste 45 Oeste 0 -- -- 61
2019-06-05 17:00:00 22.2 23 Oeste 46 Oeste 0 -- -- 57
2019-06-05 16:00:00 22 25 Oeste 56 Sudoeste 0 -- -- 57
2019-06-05 15:00:00 22.4 37 Oeste 54 Oeste 0 -- -- 57
2019-06-05 14:00:00 21.8 30 Oeste 64 Oeste 0 -- -- 57
2019-06-05 13:00:00 21.7 31 Oeste 51 Oeste 0 -- -- 60
2019-06-05 12:00:00 21.9 17 Oeste 56 Sudoeste 0 -- -- 62
2019-06-05 11:00:00 21.4 21 Oeste 50 Sudoeste 0 -- -- 69
2019-06-05 10:00:00 21.3 31 Oeste 51 Oeste 0 -- -- 73
2019-06-05 09:00:00 20.7 24 Oeste 46 Oeste 0 -- -- 80
2019-06-05 08:00:00 20.3 17 Oeste 54 Oeste 0 -- -- 83
2019-06-05 07:00:00 19.9 24 Oeste 45 Oeste 0 -- -- 84
2019-06-05 06:00:00 20.1 15 Oeste 42 Oeste 0 -- -- 84
2019-06-05 05:00:00 20.1 24 Oeste 53 Oeste 0 -- -- 83
2019-06-05 04:00:00 20.4 40 Oeste 53 Oeste 0 -- -- 83
2019-06-05 03:00:00 20.6 26 Noroeste 43 Noroeste 0 -- -- 81
2019-06-05 02:00:00 20.8 19 Oeste 32 Noroeste 0 -- -- 80
2019-06-05 01:00:00 21 16 Oeste 39 Noroeste 0 -- -- 80
2019-06-05 00:00:00 21.1 21 Noroeste 32 Noroeste 0 -- -- 81
2019-06-04 23:00:00 21 8 Noroeste 18 Oeste 0 -- -- 79
2019-06-04 22:00:00 21.6 9 Oeste 17 Sudoeste 0 -- -- 76
2019-06-04 21:00:00 22.2 11 Oeste 19 Oeste 0 -- -- 74
2019-06-04 20:00:00 22.3 5 Oeste 14 Oeste 0 -- -- 73
2019-06-04 19:00:00 23 10 Oeste 20 Oeste 0 -- -- 72
2019-06-04 18:00:00 23.4 8 Oeste 19 Oeste 0 -- -- 71
2019-06-04 17:00:00 23.9 8 Oeste 22 Oeste 0 -- -- 69
2019-06-04 16:00:00 25 13 Oeste 27 Oeste 0 -- -- 66
2019-06-04 15:00:00 25 14 Oeste 24 Sudoeste 0 -- -- 68
2019-06-04 14:00:00 24.7 6 Oeste 17 Sudoeste 0 -- -- 68
2019-06-04 13:00:00 25.1 13 Oeste 19 Oeste 0 -- -- 68
2019-06-04 12:00:00 24.3 7 Oeste 17 Oeste 0 -- -- 71
2019-06-04 11:00:00 23.6 6 Oeste 14 Oeste 0 -- -- 72
2019-06-04 10:00:00 22.6 4 Oeste 15 Oeste 0 -- -- 74
2019-06-04 09:00:00 21.9 5 Oeste 12 Sudoeste 0 -- -- 74
2019-06-04 08:00:00 20.3 5 Oeste 9 Oeste 0 -- -- 73
2019-06-04 07:00:00 19.4 3 Noroeste 8 Noroeste 0 -- -- 68
2019-06-04 06:00:00 20.2 0 Calma 15 Norte 0 -- -- 57
2019-06-04 05:00:00 20.2 9 Noroeste 15 Noroeste 0 -- -- 41
2019-06-04 04:00:00 20.5 9 Noroeste 18 Noroeste 0 -- -- 37
2019-06-04 03:00:00 19.9 11 Noroeste 19 Noroeste 0 -- -- 52
2019-06-04 02:00:00 19.4 10 Noroeste 14 Noroeste 0 -- -- 59
2019-06-04 01:00:00 19.3 10 Norte 15 Noroeste 0 -- -- 71
2019-06-04 00:00:00 19.9 9 Noroeste 13 Oeste 0 -- -- 73
2019-06-03 23:00:00 20.4 5 Oeste 10 Oeste 0 -- -- 75
2019-06-03 22:00:00 21.1 3 Oeste 10 Noroeste 0 -- -- 74
2019-06-03 21:00:00 21.9 5 Oeste 11 Noroeste 0 -- -- 72
2019-06-03 20:00:00 22.4 5 Oeste 10 Oeste 0 -- -- 72
2019-06-03 19:00:00 22.2 2 Sudoeste 10 Oeste 0 -- -- 73
2019-06-03 18:00:00 21.9 4 Sur 10 Este 0 -- -- 74
2019-06-03 17:00:00 22.3 6 Sudeste 29 Este 0 -- -- 73
2019-06-03 16:00:00 22.1 21 Este 32 Este 0 -- -- 73
2019-06-03 15:00:00 21.7 25 Este 36 Este 0 -- -- 75
2019-06-03 14:00:00 21.6 29 Este 39 Sudeste 0 -- -- 74
2019-06-03 13:00:00 21.5 32 Este 41 Este 0 -- -- 73
2019-06-03 12:00:00 22 26 Este 33 Este 0 -- -- 72
2019-06-03 11:00:00 22.6 18 Este 27 Este 0 -- -- 67
2019-06-03 10:00:00 23.3 7 Sudeste 14 Este 0 -- -- 62
2019-06-03 09:00:00 22.2 3 Oeste 10 Este 0 -- -- 62
2019-06-03 08:00:00 19.4 3 Nordeste 7 Este 0 -- -- 59
2019-06-03 07:00:00 17.8 3 Norte 12 Norte 0 -- -- 66
2019-06-03 06:00:00 18.5 7 Norte 11 Norte 0 -- -- 65
2019-06-03 05:00:00 18.6 4 Norte 11 Norte 0 -- -- 67
2019-06-03 04:00:00 18.6 8 Norte 15 Norte 0 -- -- 74
2019-06-03 03:00:00 18.7 8 Norte 19 Norte 0 -- -- 79
2019-06-03 02:00:00 19.4 10 Norte 17 Norte 0 -- -- 79
2019-06-03 01:00:00 19.9 10 Norte 15 Norte 0 -- -- 75
2019-06-03 00:00:00 20.3 4 Noroeste 8 Noroeste 0 -- -- 74
2019-06-02 23:00:00 21.1 3 Oeste 8 Oeste 0 -- -- 73
2019-06-02 22:00:00 21.3 2 Oeste 22 Este 0 -- -- 70
2019-06-02 21:00:00 21 12 Este 39 Este 0 -- -- 67
2019-06-02 20:00:00 20.8 31 Este 44 Este 0 -- -- 70
2019-06-02 19:00:00 22.2 31 Este 46 Este 0 -- -- 56
2019-06-02 18:00:00 20.8 39 Este 48 Este 0 -- -- 70
2019-06-02 17:00:00 21.2 40 Este 49 Sudeste 0 -- -- 64
2019-06-02 16:00:00 21.7 41 Este 54 Este 0 -- -- 60
2019-06-02 15:00:00 22.5 40 Este 62 Este 0 -- -- 50
2019-06-02 14:00:00 23.8 43 Este 63 Este 0 -- -- 35
2019-06-02 13:00:00 24.7 33 Este 61 Este 0 -- -- 29
2019-06-02 12:00:00 25 35 Este 51 Este 0 -- -- 27
2019-06-02 11:00:00 25.6 22 Este 44 Este 0 -- -- 25
2019-06-02 10:00:00 25.9 15 Este 31 Nordeste 0 -- -- 26
2019-06-02 09:00:00 24.3 12 Nordeste 30 Este 0 -- -- 29
2019-06-02 08:00:00 22.8 14 Nordeste 22 Norte 0 -- -- 32
2019-06-02 07:00:00 21.4 6 Norte 22 Nordeste 0 -- -- 36
2019-06-02 06:00:00 21.5 17 Nordeste 27 Nordeste 0 -- -- 38
2019-06-02 05:00:00 21.6 13 Nordeste 27 Nordeste 0 -- -- 36
2019-06-02 04:00:00 21.5 13 Norte 24 Nordeste 0 -- -- 37
2019-06-02 03:00:00 21.7 12 Norte 28 Nordeste 0 -- -- 36
2019-06-02 02:00:00 21.9 12 Nordeste 30 Nordeste 0 -- -- 35
2019-06-02 01:00:00 21.9 19 Nordeste 37 Nordeste 0 -- -- 38
2019-06-02 00:00:00 21.5 21 Nordeste 42 Nordeste 0 -- -- 45
2019-06-01 23:00:00 21.6 27 Nordeste 45 Nordeste 0 -- -- 48
2019-06-01 22:00:00 21.7 27 Nordeste 44 Nordeste 0 -- -- 48
2019-06-01 21:00:00 22.1 28 Este 52 Este 0 -- -- 45
2019-06-01 20:00:00 22.7 28 Este 55 Nordeste 0 -- -- 43
2019-06-01 19:00:00 22.8 30 Este 59 Este 0 -- -- 45
2019-06-01 18:00:00 23.1 33 Este 60 Este 0 -- -- 43
2019-06-01 17:00:00 23.6 40 Este 63 Nordeste 0 -- -- 38
2019-06-01 16:00:00 24.3 35 Este 62 Este 0 -- -- 37
2019-06-01 15:00:00 24.4 34 Este 57 Este 0 -- -- 38
2019-06-01 14:00:00 24.7 36 Este 57 Este 0 -- -- 36
2019-06-01 13:00:00 24.6 31 Este 53 Este 0 -- -- 34
2019-06-01 12:00:00 25.1 24 Este 44 Este 0 -- -- 31
2019-06-01 11:00:00 24.7 22 Nordeste 52 Este 0 -- -- 30
2019-06-01 10:00:00 23.8 21 Nordeste 51 Este 0 -- -- 31
2019-06-01 09:00:00 22.7 24 Nordeste 47 Este 0 -- -- 32
2019-06-01 08:00:00 21.9 21 Nordeste 41 Este 0 -- -- 33
2019-06-01 07:00:00 21.1 16 Nordeste 35 Nordeste 0 -- -- 31
2019-06-01 06:00:00 20.8 18 Nordeste 42 Nordeste 0 -- -- 34
2019-06-01 05:00:00 20.3 16 Nordeste 35 Este 0 -- -- 41
2019-06-01 04:00:00 20.5 18 Nordeste 37 Nordeste 0 -- -- 39
2019-06-01 03:00:00 20.4 20 Nordeste 40 Norte 0 -- -- 52
2019-06-01 02:00:00 19.7 22 Nordeste 50 Nordeste 0 -- -- 66
2019-06-01 01:00:00 20 26 Nordeste 55 Nordeste 0 -- -- 61
2019-06-01 00:00:00 20.1 19 Nordeste 46 Este 0 -- -- 59
2019-05-31 23:00:00 20.3 20 Nordeste 67 Nordeste 0 -- -- 60
2019-05-31 22:00:00 20.7 37 Nordeste 66 Nordeste 0 -- -- 57
2019-05-31 21:00:00 20.9 37 Nordeste 69 Este 0 -- -- 58
2019-05-31 20:00:00 21.5 33 Nordeste 62 Este 0 -- -- 56
2019-05-31 19:00:00 21.7 38 Nordeste 70 Nordeste 0 -- -- 55
2019-05-31 18:00:00 22 36 Este 63 Este 0 -- -- 55
2019-05-31 17:00:00 22.2 40 Este 63 Este 0 -- -- 50
2019-05-31 16:00:00 22.8 40 Este 68 Nordeste 0 -- -- 44
2019-05-31 15:00:00 23 33 Este 72 Este 0 -- -- 49
2019-05-31 14:00:00 22.7 40 Este 77 Este 0 -- -- 45
2019-05-31 13:00:00 22.3 45 Nordeste 77 Este 0 -- -- 47
2019-05-31 12:00:00 21.9 43 Nordeste 71 Este 0 -- -- 52
2019-05-31 11:00:00 21.7 37 Nordeste 68 Nordeste 0 -- -- 52
2019-05-31 10:00:00 22 23 Este 52 Este 0 -- -- 51
2019-05-31 09:00:00 21.1 30 Nordeste 52 Nordeste 0 -- -- 49
2019-05-31 08:00:00 19.9 23 Nordeste 42 Nordeste 0 -- -- 54
2019-05-31 07:00:00 19.1 18 Nordeste 50 Nordeste 0 -- -- 53
2019-05-31 06:00:00 19 16 Nordeste 49 Este 0 -- -- 58
2019-05-31 05:00:00 19.1 18 Nordeste 39 Nordeste 0 -- -- 54
2019-05-31 04:00:00 19.3 14 Nordeste 35 Nordeste 0 -- -- 50
2019-05-31 03:00:00 19.6 19 Nordeste 34 Nordeste 0 -- -- 48
2019-05-31 02:00:00 19.5 15 Nordeste 36 Este 0 -- -- 51
2019-05-31 01:00:00 19.2 18 Nordeste 39 Este 0 -- -- 61
2019-05-31 00:00:00 19.3 17 Nordeste 38 Nordeste 0 -- -- 65
2019-05-30 23:00:00 19.3 25 Nordeste 47 Nordeste 0 -- -- 67
2019-05-30 22:00:00 19.6 24 Nordeste 49 Nordeste 0 -- -- 66
2019-05-30 21:00:00 20 30 Nordeste 49 Este 0 -- -- 62
2019-05-30 20:00:00 20.3 28 Este 55 Este 0 -- -- 62
2019-05-30 19:00:00 20.5 33 Este 49 Este 0 -- -- 65
2019-05-30 18:00:00 21.2 32 Este 52 Este 0 -- -- 57
2019-05-30 17:00:00 21.7 31 Este 57 Este 0 -- -- 54
2019-05-30 16:00:00 22.1 34 Este 54 Este 0 -- -- 49
2019-05-30 15:00:00 21.8 27 Este 53 Este 0 -- -- 52
2019-05-30 14:00:00 21.8 30 Este 59 Este 0 -- -- 55
2019-05-30 13:00:00 22.3 28 Este 52 Este 0 -- -- 49
2019-05-30 12:00:00 22.2 24 Este 55 Este 0 -- -- 49
2019-05-30 11:00:00 21.5 25 Nordeste 41 Nordeste 0 -- -- 55
2019-05-30 10:00:00 20.8 26 Nordeste 48 Nordeste 0 -- -- 60
2019-05-30 09:00:00 20.1 19 Nordeste 46 Este 0 -- -- 65
2019-05-30 08:00:00 19 17 Nordeste 36 Nordeste 0 -- -- 67
2019-05-30 07:00:00 18.5 16 Norte 35 Nordeste 0 -- -- 69
2019-05-30 06:00:00 18.7 13 Nordeste 35 Nordeste 0 -- -- 69
2019-05-30 05:00:00 18.6 14 Norte 39 Nordeste 0 -- -- 72
2019-05-30 04:00:00 18.9 21 Nordeste 36 Este 0 -- -- 73
2019-05-30 03:00:00 19.1 10 Nordeste 28 Este 0 -- -- 71
2019-05-30 02:00:00 19.1 14 Este 53 Este 0 -- -- 70
2019-05-30 01:00:00 19.3 25 Nordeste 47 Este 0 -- -- 68
2019-05-30 00:00:00 19.6 20 Nordeste 40 Este 0 -- -- 63
2019-05-29 23:00:00 19.8 23 Nordeste 41 Nordeste 0 -- -- 59
2019-05-29 22:00:00 19.8 19 Nordeste 48 Este 0 -- -- 58
2019-05-29 21:00:00 19.9 32 Nordeste 54 Nordeste 0 -- -- 63
2019-05-29 20:00:00 19.8 35 Este 62 Este 0 -- -- 66
2019-05-29 19:00:00 20 39 Este 63 Este 0 -- -- 69
2019-05-29 18:00:00 20.6 37 Este 66 Este 0 -- -- 66
2019-05-29 17:00:00 20.8 41 Este 64 Este 0 -- -- 62
2019-05-29 16:00:00 21.8 37 Este 66 Este 0 -- -- 57
2019-05-29 15:00:00 21.3 42 Este 67 Este 0 -- -- 56
2019-05-29 14:00:00 21.6 38 Este 65 Nordeste 0 -- -- 64
2019-05-29 13:00:00 21.8 39 Este 61 Este 0 -- -- 58
2019-05-29 12:00:00 22.2 38 Este 59 Este 0 -- -- 61
2019-05-29 11:00:00 22.3 27 Nordeste 62 Nordeste 0 -- -- 58
2019-05-29 10:00:00 22 29 Nordeste 51 Nordeste 0 -- -- 56
2019-05-29 09:00:00 22 22 Nordeste 41 Este 0 -- -- 51
2019-05-29 08:00:00 21.1 16 Nordeste 41 Nordeste 0 -- -- 53
2019-05-29 07:00:00 20.6 22 Nordeste 49 Este 0 -- -- 54
2019-05-29 06:00:00 20.2 24 Nordeste 47 Nordeste 0 -- -- 61
2019-05-29 05:00:00 20.1 26 Nordeste 46 Nordeste 0 -- -- 68
2019-05-29 04:00:00 20 24 Nordeste 48 Este 0 -- -- 73
2019-05-29 03:00:00 20.2 8 Nordeste 53 Nordeste 0 -- -- 74
2019-05-29 02:00:00 20.5 28 Nordeste 69 Nordeste 0 -- -- 76
2019-05-29 01:00:00 20.6 38 Este 59 Este 0 -- -- 75
2019-05-29 00:00:00 21 39 Este 52 Este 0 -- -- 69
2019-05-28 23:00:00 21.2 14 Este 27 Este 0 -- -- 65
2019-05-28 22:00:00 21.1 16 Este 31 Este 0 -- -- 67
2019-05-28 21:00:00 21.3 17 Este 35 Este 0 -- -- 69
2019-05-28 20:00:00 21.2 24 Este 40 Este 0 -- -- 76
2019-05-28 19:00:00 21.1 32 Este 47 Este 0 -- -- 78
2019-05-28 18:00:00 21.1 34 Este 50 Este 0 -- -- 80
2019-05-28 17:00:00 21.7 39 Este 51 Este 0 -- -- 76
2019-05-28 16:00:00 22.6 30 Este 53 Este 0 -- -- 74
2019-05-28 15:00:00 22.9 33 Este 49 Sudeste 0 -- -- 71
2019-05-28 14:00:00 22.4 40 Este 54 Este 0 -- -- 71
2019-05-28 13:00:00 24.2 28 Este 41 Este 0 -- -- 61
2019-05-28 12:00:00 23.9 28 Este 38 Este 0 -- -- 62
2019-05-28 11:00:00 23.1 23 Este 31 Este 0 -- -- 66
2019-05-28 10:00:00 22.9 5 Sur 24 Este 0 -- -- 68
2019-05-28 09:00:00 21.9 13 Este 21 Este 0 -- -- 66
2019-05-28 08:00:00 20.3 14 Este 27 Este 0 -- -- 72
2019-05-28 07:00:00 20.1 13 Este 21 Este 0 -- -- 72
2019-05-28 06:00:00 20.2 7 Noroeste 28 Noroeste 0 -- -- 68
2019-05-28 05:00:00 20.4 18 Noroeste 39 Noroeste 0 -- -- 78
2019-05-28 04:00:00 20.4 23 Noroeste 34 Noroeste 0 -- -- 76
2019-05-28 03:00:00 20.2 10 Oeste 24 Noroeste 0 -- -- 75
2019-05-28 02:00:00 20.5 15 Noroeste 27 Noroeste 0 -- -- 75
2019-05-28 01:00:00 21.1 9 Oeste 20 Noroeste 0 -- -- 72
2019-05-28 00:00:00 20.7 10 Oeste 25 Noroeste 0 -- -- 64
2019-05-27 23:00:00 20.9 11 Oeste 34 Noroeste 0 -- -- 62
2019-05-27 22:00:00 20.9 15 Oeste 28 Noroeste 0 -- -- 64
2019-05-27 21:00:00 21.2 13 Oeste 27 Noroeste 0 -- -- 67
2019-05-27 20:00:00 22 13 Oeste 26 Noroeste 0 -- -- 69
2019-05-27 19:00:00 22.8 12 Oeste 19 Noroeste 0 -- -- 69
2019-05-27 18:00:00 23.5 6 Oeste 14 Oeste 0 -- -- 67
2019-05-27 17:00:00 24 5 Oeste 13 Oeste 0 -- -- 64
2019-05-27 16:00:00 24.8 5 Oeste 13 Sudoeste 0 -- -- 61
2019-05-27 15:00:00 24.2 5 Oeste 11 Oeste 0 -- -- 65
2019-05-27 14:00:00 24.3 3 Oeste 9 Sudoeste 0 -- -- 66
2019-05-27 13:00:00 24.1 4 Sudoeste 7 Sudeste 0 -- -- 67
2019-05-27 12:00:00 23.4 4 Sur 7 Sudoeste 0 -- -- 69
2019-05-27 11:00:00 23 3 Sudoeste 7 Sudoeste 0 -- -- 70
2019-05-27 10:00:00 22.4 2 Sudoeste 5 Sudoeste 0 -- -- 76
2019-05-27 09:00:00 20.5 0 Calma 4 Sudoeste 0 -- -- 81
2019-05-27 08:00:00 18.8 3 Este 6 Norte 0 -- -- 84
2019-05-27 07:00:00 17.9 4 Norte 13 Noroeste 0 -- -- 83
2019-05-27 06:00:00 18.4 8 Noroeste 16 Noroeste 0 -- -- 82
2019-05-27 05:00:00 18.6 11 Oeste 19 Noroeste 0 -- -- 81
2019-05-27 04:00:00 18.9 9 Oeste 17 Noroeste 0 -- -- 80
2019-05-27 03:00:00 18.1 9 Noroeste 12 Noroeste 0 -- -- 78
2019-05-27 02:00:00 18.9 6 Oeste 12 Noroeste 0 -- -- 77
2019-05-27 01:00:00 19.4 5 Oeste 18 Noroeste 0 -- -- 75
2019-05-27 00:00:00 19.5 14 Oeste 21 Noroeste 0 -- -- 74
2019-05-26 23:00:00 19.8 11 Oeste 16 Noroeste 0 -- -- 73
2019-05-26 22:00:00 20.1 8 Oeste 16 Noroeste 0 -- -- 71
2019-05-26 21:00:00 20.6 10 Oeste 16 Noroeste 0 -- -- 71
2019-05-26 20:00:00 21.5 5 Oeste 12 Oeste 0 -- -- 71
2019-05-26 19:00:00 22 7 Oeste 13 Oeste 0 -- -- 71
2019-05-26 18:00:00 21.9 5 Oeste 13 Sudoeste 0 -- -- 70
2019-05-26 17:00:00 22.4 5 Oeste 15 Sudoeste 0 -- -- 69
2019-05-26 16:00:00 22.4 6 Sudoeste 15 Sudoeste 0 -- -- 69
2019-05-26 15:00:00 22.4 6 Sudoeste 14 Oeste 0 -- -- 70
2019-05-26 14:00:00 22.2 6 Sur 15 Oeste 0 -- -- 70
2019-05-26 13:00:00 22.9 5 Oeste 15 Oeste 0 -- -- 66
2019-05-26 12:00:00 23 10 Oeste 17 Noroeste 0 -- -- 66
2019-05-26 11:00:00 22.9 12 Oeste 17 Oeste 0 -- -- 65
2019-05-26 10:00:00 21.9 8 Oeste 21 Noroeste 0 -- -- 66
2019-05-26 09:00:00 19.9 15 Noroeste 24 Noroeste 0 -- -- 68
2019-05-26 08:00:00 18.7 13 Oeste 24 Noroeste 0 -- -- 72
2019-05-26 07:00:00 17.7 17 Noroeste 25 Noroeste 0 -- -- 77
2019-05-26 06:00:00 18.1 18 Noroeste 25 Noroeste 0 -- -- 78
2019-05-26 05:00:00 18.5 16 Noroeste 23 Noroeste 0 -- -- 77
2019-05-26 04:00:00 17.4 5 Norte 12 Norte 0 -- -- 76
2019-05-26 03:00:00 17.7 7 Norte 12 Norte 0 -- -- 79
2019-05-26 02:00:00 18 6 Noroeste 12 Norte 0 -- -- 79
2019-05-26 01:00:00 18.4 7 Norte 11 Norte 0 -- -- 77
2019-05-26 00:00:00 19.5 5 Oeste 10 Oeste 0 -- -- 75